sensor_id;sensor_type;location;lat;lon;timestamp;pressure;altitude;pressure_sealevel;temperature;humidity
64294;BME280;50636;45.596;5.258;2023-05-14T00:00:50;98588.25;;;13.98;93.77
64294;BME280;50636;45.596;5.258;2023-05-14T00:03:15;98589.53;;;14.08;93.66
64294;BME280;50636;45.596;5.258;2023-05-14T00:05:41;98590.22;;;14.03;92.80
64294;BME280;50636;45.596;5.258;2023-05-14T00:08:07;98590.75;;;13.93;92.09
64294;BME280;50636;45.596;5.258;2023-05-14T00:10:32;98593.59;;;13.92;92.65
64294;BME280;50636;45.596;5.258;2023-05-14T00:12:58;98584.78;;;13.98;92.93
64294;BME280;50636;45.596;5.258;2023-05-14T00:15:24;98581.25;;;14.04;92.33
64294;BME280;50636;45.596;5.258;2023-05-14T00:17:49;98580.84;;;14.19;93.19
64294;BME280;50636;45.596;5.258;2023-05-14T00:20:15;98581.06;;;14.17;91.77
64294;BME280;50636;45.596;5.258;2023-05-14T00:22:40;98582.91;;;14.17;91.35
64294;BME280;50636;45.596;5.258;2023-05-14T00:25:07;98577.69;;;14.10;89.30
64294;BME280;50636;45.596;5.258;2023-05-14T00:27:33;98579.19;;;13.94;88.38
64294;BME280;50636;45.596;5.258;2023-05-14T00:29:59;98574.06;;;13.81;88.14
64294;BME280;50636;45.596;5.258;2023-05-14T00:32:25;98581.78;;;13.64;87.14
64294;BME280;50636;45.596;5.258;2023-05-14T00:34:50;98583.22;;;13.48;87.16
64294;BME280;50636;45.596;5.258;2023-05-14T00:37:16;98573.03;;;13.33;87.96
64294;BME280;50636;45.596;5.258;2023-05-14T00:39:44;98580.03;;;13.21;88.74
64294;BME280;50636;45.596;5.258;2023-05-14T00:42:10;98577.41;;;13.21;90.39
64294;BME280;50636;45.596;5.258;2023-05-14T00:44:36;98573.63;;;13.35;90.78
64294;BME280;50636;45.596;5.258;2023-05-14T00:47:02;98571.19;;;13.52;90.33
64294;BME280;50636;45.596;5.258;2023-05-14T00:49:28;98563.84;;;13.73;90.87
64294;BME280;50636;45.596;5.258;2023-05-14T00:51:53;98561.97;;;14.04;91.13
64294;BME280;50636;45.596;5.258;2023-05-14T00:54:20;98567.25;;;14.04;87.21
64294;BME280;50636;45.596;5.258;2023-05-14T00:56:46;98561.63;;;14.00;88.38
64294;BME280;50636;45.596;5.258;2023-05-14T00:59:12;98558.44;;;14.10;88.96
64294;BME280;50636;45.596;5.258;2023-05-14T01:01:38;98552.28;;;14.28;89.55
64294;BME280;50636;45.596;5.258;2023-05-14T01:04:05;98548.50;;;14.47;89.43
64294;BME280;50636;45.596;5.258;2023-05-14T01:07:11;98548.88;;;14.63;87.71
64294;BME280;50636;45.596;5.258;2023-05-14T01:09:41;98550.50;;;14.75;88.07
64294;BME280;50636;45.596;5.258;2023-05-14T01:12:32;98546.59;;;14.78;86.52
64294;BME280;50636;45.596;5.258;2023-05-14T01:15:10;98544.28;;;14.70;86.55
64294;BME280;50636;45.596;5.258;2023-05-14T01:17:43;98545.78;;;14.66;86.45
64294;BME280;50636;45.596;5.258;2023-05-14T01:20:10;98533.34;;;14.54;86.08
64294;BME280;50636;45.596;5.258;2023-05-14T01:22:36;98531.88;;;14.35;85.49
64294;BME280;50636;45.596;5.258;2023-05-14T01:25:03;98531.38;;;14.26;85.73
64294;BME280;50636;45.596;5.258;2023-05-14T01:28:33;98535.06;;;14.25;85.82
64294;BME280;50636;45.596;5.258;2023-05-14T01:30:31;98535.47;;;14.10;84.71
64294;BME280;50636;45.596;5.258;2023-05-14T01:32:59;98536.34;;;13.81;83.65
64294;BME280;50636;45.596;5.258;2023-05-14T01:35:29;98532.41;;;13.71;84.06
64294;BME280;50636;45.596;5.258;2023-05-14T01:38:03;98533.94;;;13.49;84.16
64294;BME280;50636;45.596;5.258;2023-05-14T01:40:31;98530.72;;;13.47;85.49
64294;BME280;50636;45.596;5.258;2023-05-14T01:42:58;98541.53;;;13.57;85.35
64294;BME280;50636;45.596;5.258;2023-05-14T01:45:25;98531.69;;;13.64;84.98
64294;BME280;50636;45.596;5.258;2023-05-14T01:47:51;98539.47;;;13.59;84.54
64294;BME280;50636;45.596;5.258;2023-05-14T01:50:17;98531.19;;;13.55;84.84
64294;BME280;50636;45.596;5.258;2023-05-14T01:52:43;98541.34;;;13.70;85.02
64294;BME280;50636;45.596;5.258;2023-05-14T01:55:10;98544.00;;;13.82;83.90
64294;BME280;50636;45.596;5.258;2023-05-14T01:57:35;98541.66;;;13.92;84.18
64294;BME280;50636;45.596;5.258;2023-05-14T02:00:01;98540.06;;;14.03;83.82
64294;BME280;50636;45.596;5.258;2023-05-14T02:02:28;98543.53;;;14.15;83.62
64294;BME280;50636;45.596;5.258;2023-05-14T02:04:54;98546.03;;;14.10;82.22
64294;BME280;50636;45.596;5.258;2023-05-14T02:07:19;98538.13;;;13.98;83.13
64294;BME280;50636;45.596;5.258;2023-05-14T02:09:45;98539.50;;;14.01;83.80
64294;BME280;50636;45.596;5.258;2023-05-14T02:12:11;98541.34;;;14.12;84.56
64294;BME280;50636;45.596;5.258;2023-05-14T02:14:37;98539.88;;;14.28;84.74
64294;BME280;50636;45.596;5.258;2023-05-14T02:17:05;98533.69;;;14.34;82.84
64294;BME280;50636;45.596;5.258;2023-05-14T02:19:31;98544.72;;;14.31;82.09
64294;BME280;50636;45.596;5.258;2023-05-14T02:21:58;98540.56;;;14.24;81.30
64294;BME280;50636;45.596;5.258;2023-05-14T02:24:23;98541.91;;;14.14;81.06
64294;BME280;50636;45.596;5.258;2023-05-14T02:26:49;98543.06;;;14.07;81.19
64294;BME280;50636;45.596;5.258;2023-05-14T02:29:15;98540.50;;;14.00;81.87
64294;BME280;50636;45.596;5.258;2023-05-14T02:31:40;98542.94;;;14.02;81.20
64294;BME280;50636;45.596;5.258;2023-05-14T02:34:06;98536.38;;;14.04;80.89
64294;BME280;50636;45.596;5.258;2023-05-14T02:36:32;98532.94;;;14.04;80.37
64294;BME280;50636;45.596;5.258;2023-05-14T02:38:58;98535.22;;;14.00;80.67
64294;BME280;50636;45.596;5.258;2023-05-14T02:41:24;98530.41;;;13.97;81.16
64294;BME280;50636;45.596;5.258;2023-05-14T02:43:50;98532.59;;;14.00;81.70
64294;BME280;50636;45.596;5.258;2023-05-14T02:46:16;98535.59;;;14.04;81.69
64294;BME280;50636;45.596;5.258;2023-05-14T02:48:41;98530.78;;;14.12;82.42
64294;BME280;50636;45.596;5.258;2023-05-14T02:51:07;98528.59;;;14.09;82.10
64294;BME280;50636;45.596;5.258;2023-05-14T02:53:33;98527.25;;;14.18;82.62
64294;BME280;50636;45.596;5.258;2023-05-14T02:55:59;98521.75;;;14.32;82.14
64294;BME280;50636;45.596;5.258;2023-05-14T02:58:25;98528.88;;;14.43;81.45
64294;BME280;50636;45.596;5.258;2023-05-14T03:00:50;98529.69;;;14.44;80.78
64294;BME280;50636;45.596;5.258;2023-05-14T03:03:18;98527.03;;;14.44;80.60
64294;BME280;50636;45.596;5.258;2023-05-14T03:05:44;98523.47;;;14.50;80.80
64294;BME280;50636;45.596;5.258;2023-05-14T03:08:10;98519.25;;;14.61;80.75
64294;BME280;50636;45.596;5.258;2023-05-14T03:10:36;98512.47;;;14.76;80.81
64294;BME280;50636;45.596;5.258;2023-05-14T03:13:02;98514.38;;;14.93;79.88
64294;BME280;50636;45.596;5.258;2023-05-14T03:15:27;98517.94;;;14.98;79.58
64294;BME280;50636;45.596;5.258;2023-05-14T03:17:53;98517.59;;;14.95;79.66
64294;BME280;50636;45.596;5.258;2023-05-14T03:20:19;98514.38;;;14.93;79.57
64294;BME280;50636;45.596;5.258;2023-05-14T03:22:45;98511.75;;;14.93;78.80
64294;BME280;50636;45.596;5.258;2023-05-14T03:25:11;98519.56;;;15.00;78.40
64294;BME280;50636;45.596;5.258;2023-05-14T03:27:36;98514.06;;;15.01;78.20
64294;BME280;50636;45.596;5.258;2023-05-14T03:30:03;98510.84;;;14.99;78.22
64294;BME280;50636;45.596;5.258;2023-05-14T03:32:29;98513.72;;;14.97;78.29
64294;BME280;50636;45.596;5.258;2023-05-14T03:34:54;98515.31;;;14.98;78.69
64294;BME280;50636;45.596;5.258;2023-05-14T03:37:20;98514.63;;;15.03;78.63
64294;BME280;50636;45.596;5.258;2023-05-14T03:39:46;98515.06;;;15.00;78.85
64294;BME280;50636;45.596;5.258;2023-05-14T03:42:12;98514.28;;;15.00;78.97
64294;BME280;50636;45.596;5.258;2023-05-14T03:44:37;98514.06;;;15.01;78.69
64294;BME280;50636;45.596;5.258;2023-05-14T03:47:03;98522.56;;;15.03;78.80
64294;BME280;50636;45.596;5.258;2023-05-14T03:49:29;98513.91;;;15.08;78.99
64294;BME280;50636;45.596;5.258;2023-05-14T03:51:54;98513.19;;;15.24;79.08
64294;BME280;50636;45.596;5.258;2023-05-14T03:54:21;98513.84;;;15.31;79.02
64294;BME280;50636;45.596;5.258;2023-05-14T03:56:47;98523.13;;;15.46;78.79
64294;BME280;50636;45.596;5.258;2023-05-14T03:59:15;98517.25;;;15.44;77.52
64294;BME280;50636;45.596;5.258;2023-05-14T04:01:41;98515.97;;;15.46;77.58
64294;BME280;50636;45.596;5.258;2023-05-14T04:04:07;98515.06;;;15.41;77.44
64294;BME280;50636;45.596;5.258;2023-05-14T04:06:33;98520.69;;;15.15;78.55
64294;BME280;50636;45.596;5.258;2023-05-14T04:08:58;98517.84;;;15.05;81.05
64294;BME280;50636;45.596;5.258;2023-05-14T04:11:24;98515.56;;;14.85;83.76
64294;BME280;50636;45.596;5.258;2023-05-14T04:13:50;98518.31;;;14.78;87.89
64294;BME280;50636;45.596;5.258;2023-05-14T04:16:15;98510.75;;;14.70;90.32
64294;BME280;50636;45.596;5.258;2023-05-14T04:18:41;98508.44;;;14.50;92.00
64294;BME280;50636;45.596;5.258;2023-05-14T04:21:07;98513.94;;;14.25;92.58
64294;BME280;50636;45.596;5.258;2023-05-14T04:23:32;98507.25;;;13.99;92.78
64294;BME280;50636;45.596;5.258;2023-05-14T04:25:58;98513.88;;;13.90;95.22
64294;BME280;50636;45.596;5.258;2023-05-14T04:28:24;98513.56;;;14.10;97.92
64294;BME280;50636;45.596;5.258;2023-05-14T04:30:49;98512.44;;;14.17;98.99
64294;BME280;50636;45.596;5.258;2023-05-14T04:33:16;98516.09;;;14.05;99.18
64294;BME280;50636;45.596;5.258;2023-05-14T04:35:43;98519.88;;;13.97;99.87
64294;BME280;50636;45.596;5.258;2023-05-14T04:38:08;98521.16;;;13.76;98.95
64294;BME280;50636;45.596;5.258;2023-05-14T04:40:35;98523.16;;;13.81;100.00
64294;BME280;50636;45.596;5.258;2023-05-14T04:43:01;98523.53;;;13.96;100.00
64294;BME280;50636;45.596;5.258;2023-05-14T04:45:29;98520.63;;;13.86;100.00
64294;BME280;50636;45.596;5.258;2023-05-14T04:47:54;98517.31;;;13.78;100.00
64294;BME280;50636;45.596;5.258;2023-05-14T04:50:20;98518.22;;;13.84;100.00
64294;BME280;50636;45.596;5.258;2023-05-14T04:52:46;98522.50;;;13.97;100.00
64294;BME280;50636;45.596;5.258;2023-05-14T04:55:12;98518.34;;;13.89;100.00
64294;BME280;50636;45.596;5.258;2023-05-14T04:57:37;98528.91;;;13.89;100.00
64294;BME280;50636;45.596;5.258;2023-05-14T05:00:03;98531.97;;;13.74;100.00
64294;BME280;50636;45.596;5.258;2023-05-14T05:02:33;98534.63;;;13.56;100.00
64294;BME280;50636;45.596;5.258;2023-05-14T05:04:59;98528.88;;;13.47;100.00
64294;BME280;50636;45.596;5.258;2023-05-14T05:07:25;98532.16;;;13.61;100.00
64294;BME280;50636;45.596;5.258;2023-05-14T05:09:50;98537.91;;;13.70;100.00
64294;BME280;50636;45.596;5.258;2023-05-14T05:12:16;98535.13;;;13.65;100.00
64294;BME280;50636;45.596;5.258;2023-05-14T05:14:42;98536.09;;;13.70;100.00
64294;BME280;50636;45.596;5.258;2023-05-14T05:17:07;98538.22;;;13.62;100.00
64294;BME280;50636;45.596;5.258;2023-05-14T05:19:33;98544.00;;;13.70;100.00
64294;BME280;50636;45.596;5.258;2023-05-14T05:22:02;98545.41;;;13.85;100.00
64294;BME280;50636;45.596;5.258;2023-05-14T05:24:27;98542.09;;;13.89;100.00
64294;BME280;50636;45.596;5.258;2023-05-14T05:26:53;98541.88;;;13.91;100.00
64294;BME280;50636;45.596;5.258;2023-05-14T05:29:20;98539.25;;;13.91;100.00
64294;BME280;50636;45.596;5.258;2023-05-14T05:31:47;98542.00;;;13.96;100.00
64294;BME280;50636;45.596;5.258;2023-05-14T05:34:13;98543.50;;;14.04;100.00
64294;BME280;50636;45.596;5.258;2023-05-14T05:36:38;98544.44;;;14.09;100.00
64294;BME280;50636;45.596;5.258;2023-05-14T05:39:05;98545.13;;;14.05;100.00
64294;BME280;50636;45.596;5.258;2023-05-14T05:41:31;98535.69;;;13.97;100.00
64294;BME280;50636;45.596;5.258;2023-05-14T05:43:56;98546.09;;;13.92;100.00
64294;BME280;50636;45.596;5.258;2023-05-14T05:46:22;98543.84;;;13.95;100.00
64294;BME280;50636;45.596;5.258;2023-05-14T05:48:48;98546.03;;;13.98;100.00
64294;BME280;50636;45.596;5.258;2023-05-14T05:51:13;98547.25;;;13.96;100.00
64294;BME280;50636;45.596;5.258;2023-05-14T05:53:39;98543.50;;;14.04;100.00
64294;BME280;50636;45.596;5.258;2023-05-14T05:56:05;98547.41;;;14.01;100.00
64294;BME280;50636;45.596;5.258;2023-05-14T05:58:31;98540.50;;;14.00;100.00
64294;BME280;50636;45.596;5.258;2023-05-14T06:00:56;98542.03;;;14.08;100.00
64294;BME280;50636;45.596;5.258;2023-05-14T06:03:22;98543.41;;;14.10;100.00
64294;BME280;50636;45.596;5.258;2023-05-14T06:05:48;98538.94;;;14.11;100.00
64294;BME280;50636;45.596;5.258;2023-05-14T06:08:13;98542.25;;;14.06;100.00
64294;BME280;50636;45.596;5.258;2023-05-14T06:10:40;98535.59;;;14.04;100.00
64294;BME280;50636;45.596;5.258;2023-05-14T06:13:06;98535.06;;;14.25;100.00
64294;BME280;50636;45.596;5.258;2023-05-14T06:15:31;98531.97;;;14.40;100.00
64294;BME280;50636;45.596;5.258;2023-05-14T06:17:57;98543.91;;;14.54;100.00
64294;BME280;50636;45.596;5.258;2023-05-14T06:20:23;98539.09;;;14.51;100.00
64294;BME280;50636;45.596;5.258;2023-05-14T06:22:48;98541.09;;;14.68;100.00
64294;BME280;50636;45.596;5.258;2023-05-14T06:25:14;98545.88;;;14.83;100.00
64294;BME280;50636;45.596;5.258;2023-05-14T06:27:43;98545.66;;;14.96;100.00
64294;BME280;50636;45.596;5.258;2023-05-14T06:30:09;98537.78;;;15.13;100.00
64294;BME280;50636;45.596;5.258;2023-05-14T06:32:35;98543.53;;;15.22;100.00
64294;BME280;50636;45.596;5.258;2023-05-14T06:35:01;98542.38;;;15.29;100.00
64294;BME280;50636;45.596;5.258;2023-05-14T06:37:27;98537.00;;;15.53;100.00
64294;BME280;50636;45.596;5.258;2023-05-14T06:39:53;98553.63;;;15.65;99.63
64294;BME280;50636;45.596;5.258;2023-05-14T06:42:19;98542.16;;;15.60;99.32
64294;BME280;50636;45.596;5.258;2023-05-14T06:44:44;98546.00;;;15.69;99.68
64294;BME280;50636;45.596;5.258;2023-05-14T06:47:10;98551.78;;;15.77;99.66
64294;BME280;50636;45.596;5.258;2023-05-14T06:49:36;98551.06;;;15.82;99.71
64294;BME280;50636;45.596;5.258;2023-05-14T06:52:02;98558.56;;;15.73;97.63
64294;BME280;50636;45.596;5.258;2023-05-14T06:54:28;98554.50;;;15.71;98.23
64294;BME280;50636;45.596;5.258;2023-05-14T06:56:54;98556.50;;;15.75;98.73
64294;BME280;50636;45.596;5.258;2023-05-14T06:59:19;98558.88;;;15.77;98.56
64294;BME280;50636;45.596;5.258;2023-05-14T07:01:45;98557.75;;;15.73;97.96
64294;BME280;50636;45.596;5.258;2023-05-14T07:04:11;98549.72;;;15.68;97.21
64294;BME280;50636;45.596;5.258;2023-05-14T07:06:36;98559.25;;;15.69;97.18
64294;BME280;50636;45.596;5.258;2023-05-14T07:09:02;98555.56;;;15.82;97.50
64294;BME280;50636;45.596;5.258;2023-05-14T07:11:29;98556.53;;;15.92;97.28
64294;BME280;50636;45.596;5.258;2023-05-14T07:13:54;98559.56;;;16.01;96.94
64294;BME280;50636;45.596;5.258;2023-05-14T07:16:20;98552.06;;;16.10;96.22
64294;BME280;50636;45.596;5.258;2023-05-14T07:18:46;98548.69;;;16.14;95.78
64294;BME280;50636;45.596;5.258;2023-05-14T07:21:11;98549.03;;;16.18;94.92
64294;BME280;50636;45.596;5.258;2023-05-14T07:23:37;98547.25;;;16.24;94.65
64294;BME280;50636;45.596;5.258;2023-05-14T07:26:06;98547.31;;;16.29;95.43
64294;BME280;50636;45.596;5.258;2023-05-14T07:28:35;98545.97;;;16.26;95.57
64294;BME280;50636;45.596;5.258;2023-05-14T07:31:01;98549.31;;;16.22;95.50
64294;BME280;50636;45.596;5.258;2023-05-14T07:33:29;98545.09;;;16.21;96.56
64294;BME280;50636;45.596;5.258;2023-05-14T07:35:54;98553.66;;;16.11;97.13
64294;BME280;50636;45.596;5.258;2023-05-14T07:38:20;98551.63;;;16.01;97.99
64294;BME280;50636;45.596;5.258;2023-05-14T07:40:46;98554.44;;;15.77;97.77
64294;BME280;50636;45.596;5.258;2023-05-14T07:43:12;98549.91;;;15.49;98.18
64294;BME280;50636;45.596;5.258;2023-05-14T07:45:38;98555.81;;;15.28;98.91
64294;BME280;50636;45.596;5.258;2023-05-14T07:48:04;98551.47;;;15.22;100.00
64294;BME280;50636;45.596;5.258;2023-05-14T07:50:30;98557.75;;;15.32;100.00
64294;BME280;50636;45.596;5.258;2023-05-14T07:52:56;98550.63;;;15.33;100.00
64294;BME280;50636;45.596;5.258;2023-05-14T07:55:22;98558.66;;;15.38;100.00
64294;BME280;50636;45.596;5.258;2023-05-14T07:57:48;98559.56;;;15.44;100.00
64294;BME280;50636;45.596;5.258;2023-05-14T08:00:13;98559.59;;;15.32;100.00
64294;BME280;50636;45.596;5.258;2023-05-14T08:02:41;98554.47;;;15.13;100.00
64294;BME280;50636;45.596;5.258;2023-05-14T08:05:07;98549.41;;;15.12;100.00
64294;BME280;50636;45.596;5.258;2023-05-14T08:07:34;98549.66;;;15.51;100.00
64294;BME280;50636;45.596;5.258;2023-05-14T08:09:59;98549.44;;;15.69;99.68
64294;BME280;50636;45.596;5.258;2023-05-14T08:12:25;98548.44;;;15.99;99.85
64294;BME280;50636;45.596;5.258;2023-05-14T08:14:51;98537.31;;;16.14;96.44
64294;BME280;50636;45.596;5.258;2023-05-14T08:17:17;98534.31;;;16.27;96.30
64294;BME280;50636;45.596;5.258;2023-05-14T08:19:43;98545.13;;;16.60;95.69
64294;BME280;50636;45.596;5.258;2023-05-14T08:22:08;98538.69;;;16.89;93.60
64294;BME280;50636;45.596;5.258;2023-05-14T08:24:34;98543.34;;;16.99;91.96
64294;BME280;50636;45.596;5.258;2023-05-14T08:27:00;98546.66;;;16.72;91.09
64294;BME280;50636;45.596;5.258;2023-05-14T08:29:27;98537.09;;;16.71;93.07
64294;BME280;50636;45.596;5.258;2023-05-14T08:31:52;98542.72;;;16.75;91.53
64294;BME280;50636;45.596;5.258;2023-05-14T08:34:18;98537.41;;;16.75;91.68
64294;BME280;50636;45.596;5.258;2023-05-14T08:36:44;98545.41;;;16.80;91.27
64294;BME280;50636;45.596;5.258;2023-05-14T08:39:10;98539.28;;;17.13;93.59
64294;BME280;50636;45.596;5.258;2023-05-14T08:41:36;98536.66;;;17.63;94.17
64294;BME280;50636;45.596;5.258;2023-05-14T08:44:12;98540.25;;;18.06;93.34
64294;BME280;50636;45.596;5.258;2023-05-14T08:46:38;98532.44;;;18.21;91.83
64294;BME280;50636;45.596;5.258;2023-05-14T08:49:14;98534.88;;;18.28;94.03
64294;BME280;50636;45.596;5.258;2023-05-14T08:51:45;98539.28;;;18.49;95.79
64294;BME280;50636;45.596;5.258;2023-05-14T08:54:17;98535.66;;;18.66;94.50
64294;BME280;50636;45.596;5.258;2023-05-14T08:56:45;98538.00;;;19.00;93.29
64294;BME280;50636;45.596;5.258;2023-05-14T08:59:11;98535.09;;;19.11;88.89
64294;BME280;50636;45.596;5.258;2023-05-14T09:01:38;98542.84;;;19.13;86.32
64294;BME280;50636;45.596;5.258;2023-05-14T09:04:06;98544.41;;;19.04;84.64
64294;BME280;50636;45.596;5.258;2023-05-14T09:06:36;98542.44;;;18.84;82.58
64294;BME280;50636;45.596;5.258;2023-05-14T09:09:03;98534.03;;;18.60;83.55
64294;BME280;50636;45.596;5.258;2023-05-14T09:11:29;98533.22;;;18.59;83.75
64294;BME280;50636;45.596;5.258;2023-05-14T09:13:54;98528.44;;;18.61;82.80
64294;BME280;50636;45.596;5.258;2023-05-14T09:16:21;98533.59;;;18.35;81.49
64294;BME280;50636;45.596;5.258;2023-05-14T09:18:47;98531.69;;;18.31;82.45
64294;BME280;50636;45.596;5.258;2023-05-14T09:21:13;98534.69;;;18.40;81.52
64294;BME280;50636;45.596;5.258;2023-05-14T09:23:43;98531.78;;;18.41;79.37
64294;BME280;50636;45.596;5.258;2023-05-14T09:26:16;98533.56;;;18.73;79.78
64294;BME280;50636;45.596;5.258;2023-05-14T09:28:42;98531.69;;;19.21;78.80
64294;BME280;50636;45.596;5.258;2023-05-14T09:31:09;98529.69;;;19.69;80.57
64294;BME280;50636;45.596;5.258;2023-05-14T09:33:34;98535.13;;;20.10;79.31
64294;BME280;50636;45.596;5.258;2023-05-14T09:36:01;98524.47;;;20.21;77.28
64294;BME280;50636;45.596;5.258;2023-05-14T09:38:31;98538.28;;;19.92;73.06
64294;BME280;50636;45.596;5.258;2023-05-14T09:40:58;98536.78;;;19.28;75.04
64294;BME280;50636;45.596;5.258;2023-05-14T09:43:24;98532.91;;;18.88;77.59
64294;BME280;50636;45.596;5.258;2023-05-14T09:45:51;98534.47;;;18.84;78.28
64294;BME280;50636;45.596;5.258;2023-05-14T09:48:17;98537.78;;;18.69;77.22
64294;BME280;50636;45.596;5.258;2023-05-14T09:50:44;98530.53;;;18.54;77.08
64294;BME280;50636;45.596;5.258;2023-05-14T09:53:10;98523.22;;;18.71;78.17
64294;BME280;50636;45.596;5.258;2023-05-14T09:55:37;98532.44;;;19.06;76.81
64294;BME280;50636;45.596;5.258;2023-05-14T09:58:03;98530.41;;;19.29;77.20
64294;BME280;50636;45.596;5.258;2023-05-14T10:00:31;98530.16;;;19.35;77.43
64294;BME280;50636;45.596;5.258;2023-05-14T10:02:57;98529.91;;;19.42;78.52
64294;BME280;50636;45.596;5.258;2023-05-14T10:05:24;98528.09;;;19.58;78.35
64294;BME280;50636;45.596;5.258;2023-05-14T10:07:53;98527.63;;;19.82;75.82
64294;BME280;50636;45.596;5.258;2023-05-14T10:10:23;98521.41;;;19.55;74.78
64294;BME280;50636;45.596;5.258;2023-05-14T10:12:57;98527.38;;;20.04;75.21
64294;BME280;50636;45.596;5.258;2023-05-14T10:15:47;98520.69;;;20.73;76.49
64294;BME280;50636;45.596;5.258;2023-05-14T10:18:18;98517.47;;;20.81;76.78
64294;BME280;50636;45.596;5.258;2023-05-14T10:20:47;98521.47;;;20.73;76.62
64294;BME280;50636;45.596;5.258;2023-05-14T10:23:13;98517.91;;;21.09;74.66
64294;BME280;50636;45.596;5.258;2023-05-14T10:25:39;98509.75;;;21.84;73.48
64294;BME280;50636;45.596;5.258;2023-05-14T10:28:06;98509.75;;;23.44;68.91
64294;BME280;50636;45.596;5.258;2023-05-14T10:30:31;98501.94;;;24.51;65.97
64294;BME280;50636;45.596;5.258;2023-05-14T10:33:14;98504.59;;;25.21;64.96
64294;BME280;50636;45.596;5.258;2023-05-14T10:36:09;98492.63;;;25.41;63.55
64294;BME280;50636;45.596;5.258;2023-05-14T10:38:36;98489.13;;;25.77;57.52
64294;BME280;50636;45.596;5.258;2023-05-14T10:41:04;98495.66;;;25.98;55.17
64294;BME280;50636;45.596;5.258;2023-05-14T10:43:38;98497.78;;;26.73;52.05
64294;BME280;50636;45.596;5.258;2023-05-14T10:46:04;98493.03;;;27.97;48.88
64294;BME280;50636;45.596;5.258;2023-05-14T10:48:32;98488.63;;;29.16;46.55
64294;BME280;50636;45.596;5.258;2023-05-14T10:50:58;98488.97;;;29.78;43.13
64294;BME280;50636;45.596;5.258;2023-05-14T10:53:38;98475.78;;;29.34;39.73
64294;BME280;50636;45.596;5.258;2023-05-14T10:56:11;98473.88;;;28.37;39.79
64294;BME280;50636;45.596;5.258;2023-05-14T10:58:39;98478.19;;;28.38;40.33
64294;BME280;50636;45.596;5.258;2023-05-14T11:01:07;98478.13;;;28.46;39.76
64294;BME280;50636;45.596;5.258;2023-05-14T11:03:44;98482.41;;;27.39;40.58
64294;BME280;50636;45.596;5.258;2023-05-14T11:06:12;98479.38;;;26.35;41.87
64294;BME280;50636;45.596;5.258;2023-05-14T11:08:38;98479.91;;;25.91;41.94
64294;BME280;50636;45.596;5.258;2023-05-14T11:11:05;98487.16;;;26.36;41.85
64294;BME280;50636;45.596;5.258;2023-05-14T11:13:31;98480.50;;;26.74;41.36
64294;BME280;50636;45.596;5.258;2023-05-14T11:15:59;98478.00;;;26.77;41.37
64294;BME280;50636;45.596;5.258;2023-05-14T11:18:30;98470.91;;;26.19;40.39
64294;BME280;50636;45.596;5.258;2023-05-14T11:21:00;98472.50;;;25.52;41.63
64294;BME280;50636;45.596;5.258;2023-05-14T11:23:26;98466.41;;;25.24;42.66
64294;BME280;50636;45.596;5.258;2023-05-14T11:25:53;98469.31;;;25.00;42.00
64294;BME280;50636;45.596;5.258;2023-05-14T11:28:22;98467.50;;;25.09;42.33
64294;BME280;50636;45.596;5.258;2023-05-14T11:30:49;98462.94;;;25.60;42.29
64294;BME280;50636;45.596;5.258;2023-05-14T11:33:16;98460.94;;;26.19;41.62
64294;BME280;50636;45.596;5.258;2023-05-14T11:35:42;98451.91;;;26.46;39.96
64294;BME280;50636;45.596;5.258;2023-05-14T11:38:19;98452.78;;;26.33;39.07
64294;BME280;50636;45.596;5.258;2023-05-14T11:43:18;98454.22;;;26.39;39.87
64294;BME280;50636;45.596;5.258;2023-05-14T11:45:52;98449.13;;;26.29;38.87
64294;BME280;50636;45.596;5.258;2023-05-14T11:48:18;98443.53;;;26.17;38.36
64294;BME280;50636;45.596;5.258;2023-05-14T11:50:50;98445.59;;;26.20;38.31
64294;BME280;50636;45.596;5.258;2023-05-14T11:53:24;98434.56;;;26.61;37.85
64294;BME280;50636;45.596;5.258;2023-05-14T11:55:51;98439.56;;;27.12;38.63
64294;BME280;50636;45.596;5.258;2023-05-14T11:58:18;98433.44;;;27.37;37.20
64294;BME280;50636;45.596;5.258;2023-05-14T12:00:45;98425.16;;;27.77;36.25
64294;BME280;50636;45.596;5.258;2023-05-14T12:03:12;98431.75;;;28.06;35.59
64294;BME280;50636;45.596;5.258;2023-05-14T12:05:38;98429.72;;;28.50;35.51
64294;BME280;50636;45.596;5.258;2023-05-14T12:08:19;98418.22;;;28.92;34.35
64294;BME280;50636;45.596;5.258;2023-05-14T12:10:45;98426.88;;;28.97;34.00
64294;BME280;50636;45.596;5.258;2023-05-14T12:13:14;98408.78;;;29.40;33.58
64294;BME280;50636;45.596;5.258;2023-05-14T12:15:44;98412.44;;;29.77;33.17
64294;BME280;50636;45.596;5.258;2023-05-14T12:18:09;98410.63;;;29.48;32.07
64294;BME280;50636;45.596;5.258;2023-05-14T12:20:35;98412.06;;;28.82;32.54
64294;BME280;50636;45.596;5.258;2023-05-14T12:23:01;98411.66;;;28.33;32.89
64294;BME280;50636;45.596;5.258;2023-05-14T12:25:28;98418.81;;;27.73;32.86
64294;BME280;50636;45.596;5.258;2023-05-14T12:27:53;98421.84;;;27.10;33.69
64294;BME280;50636;45.596;5.258;2023-05-14T12:30:19;98424.19;;;27.03;34.38
64294;BME280;50636;45.596;5.258;2023-05-14T12:32:45;98421.94;;;26.88;34.82
64294;BME280;50636;45.596;5.258;2023-05-14T12:35:10;98425.88;;;26.73;35.22
64294;BME280;50636;45.596;5.258;2023-05-14T12:37:36;98424.69;;;26.57;35.66
64294;BME280;50636;45.596;5.258;2023-05-14T12:40:04;98416.84;;;26.29;34.98
64294;BME280;50636;45.596;5.258;2023-05-14T12:42:36;98415.41;;;26.23;35.58
64294;BME280;50636;45.596;5.258;2023-05-14T12:45:02;98419.50;;;26.20;35.44
64294;BME280;50636;45.596;5.258;2023-05-14T12:47:31;98415.63;;;26.44;35.25
64294;BME280;50636;45.596;5.258;2023-05-14T12:49:57;98409.63;;;27.57;34.29
64294;BME280;50636;45.596;5.258;2023-05-14T12:52:23;98400.22;;;28.96;31.85
64294;BME280;50636;45.596;5.258;2023-05-14T12:54:49;98391.50;;;29.99;29.77
64294;BME280;50636;45.596;5.258;2023-05-14T12:57:14;98383.53;;;30.27;28.75
64294;BME280;50636;45.596;5.258;2023-05-14T12:59:40;98382.97;;;30.34;28.84